sensor_id;sensor_type;location;lat;lon;timestamp;P1;durP1;ratioP1;P2;durP2;ratioP2
66669;SDS011;53568;52.164;4.472;2023-05-07T00:00:37;28.00;;;27.99;;
66669;SDS011;53568;52.164;4.472;2023-05-07T00:03:02;26.90;;;26.90;;
66669;SDS011;53568;52.164;4.472;2023-05-07T00:05:28;27.85;;;27.84;;
66669;SDS011;53568;52.164;4.472;2023-05-07T00:07:53;28.87;;;28.86;;
66669;SDS011;53568;52.164;4.472;2023-05-07T00:10:19;28.28;;;28.28;;
66669;SDS011;53568;52.164;4.472;2023-05-07T00:12:45;27.18;;;27.16;;
66669;SDS011;53568;52.164;4.472;2023-05-07T00:15:10;28.06;;;28.06;;
66669;SDS011;53568;52.164;4.472;2023-05-07T00:17:36;28.16;;;28.16;;
66669;SDS011;53568;52.164;4.472;2023-05-07T00:20:02;27.70;;;27.70;;
66669;SDS011;53568;52.164;4.472;2023-05-07T00:22:30;27.79;;;27.79;;
66669;SDS011;53568;52.164;4.472;2023-05-07T00:24:57;27.65;;;27.65;;
66669;SDS011;53568;52.164;4.472;2023-05-07T00:27:23;27.71;;;27.71;;
66669;SDS011;53568;52.164;4.472;2023-05-07T00:29:49;29.37;;;29.37;;
66669;SDS011;53568;52.164;4.472;2023-05-07T00:32:15;31.84;;;31.80;;
66669;SDS011;53568;52.164;4.472;2023-05-07T00:34:41;34.08;;;34.08;;
66669;SDS011;53568;52.164;4.472;2023-05-07T00:37:06;34.47;;;34.35;;
66669;SDS011;53568;52.164;4.472;2023-05-07T00:39:35;35.50;;;35.41;;
66669;SDS011;53568;52.164;4.472;2023-05-07T00:42:01;34.95;;;34.90;;
66669;SDS011;53568;52.164;4.472;2023-05-07T00:44:27;36.58;;;36.41;;
66669;SDS011;53568;52.164;4.472;2023-05-07T00:46:55;37.23;;;36.85;;
66669;SDS011;53568;52.164;4.472;2023-05-07T00:49:21;38.11;;;37.63;;
66669;SDS011;53568;52.164;4.472;2023-05-07T00:51:55;37.19;;;37.13;;
66669;SDS011;53568;52.164;4.472;2023-05-07T00:54:21;39.27;;;38.54;;
66669;SDS011;53568;52.164;4.472;2023-05-07T00:56:47;38.35;;;38.29;;
66669;SDS011;53568;52.164;4.472;2023-05-07T00:59:13;38.22;;;37.99;;
66669;SDS011;53568;52.164;4.472;2023-05-07T01:01:38;38.77;;;38.63;;
66669;SDS011;53568;52.164;4.472;2023-05-07T01:04:04;38.61;;;38.35;;
66669;SDS011;53568;52.164;4.472;2023-05-07T01:06:30;39.68;;;38.94;;
66669;SDS011;53568;52.164;4.472;2023-05-07T01:08:58;40.00;;;39.64;;
66669;SDS011;53568;52.164;4.472;2023-05-07T01:11:24;40.22;;;39.29;;
66669;SDS011;53568;52.164;4.472;2023-05-07T01:13:51;40.27;;;39.58;;
66669;SDS011;53568;52.164;4.472;2023-05-07T01:16:17;40.27;;;39.68;;
66669;SDS011;53568;52.164;4.472;2023-05-07T01:18:43;40.57;;;39.70;;
66669;SDS011;53568;52.164;4.472;2023-05-07T01:21:10;40.52;;;39.93;;
66669;SDS011;53568;52.164;4.472;2023-05-07T01:23:36;40.17;;;39.72;;
66669;SDS011;53568;52.164;4.472;2023-05-07T01:26:03;38.97;;;38.57;;
66669;SDS011;53568;52.164;4.472;2023-05-07T01:28:29;39.84;;;39.80;;
66669;SDS011;53568;52.164;4.472;2023-05-07T01:30:55;40.04;;;39.38;;
66669;SDS011;53568;52.164;4.472;2023-05-07T01:33:26;40.72;;;39.84;;
66669;SDS011;53568;52.164;4.472;2023-05-07T01:35:58;40.84;;;39.93;;
66669;SDS011;53568;52.164;4.472;2023-05-07T01:38:29;41.41;;;40.70;;
66669;SDS011;53568;52.164;4.472;2023-05-07T01:40:55;40.83;;;40.05;;
66669;SDS011;53568;52.164;4.472;2023-05-07T01:43:22;39.85;;;39.16;;
66669;SDS011;53568;52.164;4.472;2023-05-07T01:45:48;39.14;;;38.42;;
66669;SDS011;53568;52.164;4.472;2023-05-07T01:48:15;39.60;;;38.68;;
66669;SDS011;53568;52.164;4.472;2023-05-07T01:50:44;40.53;;;39.16;;
66669;SDS011;53568;52.164;4.472;2023-05-07T01:53:10;39.09;;;37.87;;
66669;SDS011;53568;52.164;4.472;2023-05-07T01:55:35;38.60;;;37.54;;
66669;SDS011;53568;52.164;4.472;2023-05-07T01:58:02;38.67;;;37.40;;
66669;SDS011;53568;52.164;4.472;2023-05-07T02:00:28;36.03;;;35.41;;
66669;SDS011;53568;52.164;4.472;2023-05-07T02:02:54;36.55;;;35.70;;
66669;SDS011;53568;52.164;4.472;2023-05-07T02:05:20;35.14;;;34.48;;
66669;SDS011;53568;52.164;4.472;2023-05-07T02:07:46;34.94;;;34.09;;
66669;SDS011;53568;52.164;4.472;2023-05-07T02:10:11;33.72;;;33.28;;
66669;SDS011;53568;52.164;4.472;2023-05-07T02:12:37;34.67;;;34.06;;
66669;SDS011;53568;52.164;4.472;2023-05-07T02:15:02;34.14;;;33.27;;
66669;SDS011;53568;52.164;4.472;2023-05-07T02:17:28;34.15;;;33.62;;
66669;SDS011;53568;52.164;4.472;2023-05-07T02:19:56;32.80;;;32.28;;
66669;SDS011;53568;52.164;4.472;2023-05-07T02:22:22;32.71;;;32.24;;
66669;SDS011;53568;52.164;4.472;2023-05-07T02:24:48;32.66;;;32.23;;
66669;SDS011;53568;52.164;4.472;2023-05-07T02:27:14;33.40;;;32.65;;
66669;SDS011;53568;52.164;4.472;2023-05-07T02:29:39;32.42;;;31.89;;
66669;SDS011;53568;52.164;4.472;2023-05-07T02:32:05;31.54;;;31.20;;
66669;SDS011;53568;52.164;4.472;2023-05-07T02:34:30;32.37;;;31.48;;
66669;SDS011;53568;52.164;4.472;2023-05-07T02:36:56;31.37;;;31.30;;
66669;SDS011;53568;52.164;4.472;2023-05-07T02:39:21;31.66;;;31.47;;
66669;SDS011;53568;52.164;4.472;2023-05-07T02:41:47;31.41;;;31.37;;
66669;SDS011;53568;52.164;4.472;2023-05-07T02:44:12;30.45;;;30.45;;
66669;SDS011;53568;52.164;4.472;2023-05-07T02:46:38;30.41;;;30.40;;
66669;SDS011;53568;52.164;4.472;2023-05-07T02:49:03;30.91;;;30.84;;
66669;SDS011;53568;52.164;4.472;2023-05-07T02:51:29;29.88;;;29.82;;
66669;SDS011;53568;52.164;4.472;2023-05-07T02:53:55;30.43;;;30.39;;
66669;SDS011;53568;52.164;4.472;2023-05-07T02:56:21;30.92;;;30.84;;
66669;SDS011;53568;52.164;4.472;2023-05-07T02:58:47;31.25;;;30.52;;
66669;SDS011;53568;52.164;4.472;2023-05-07T03:01:12;30.06;;;30.00;;
66669;SDS011;53568;52.164;4.472;2023-05-07T03:03:39;30.08;;;30.04;;
66669;SDS011;53568;52.164;4.472;2023-05-07T03:06:05;31.34;;;31.12;;
66669;SDS011;53568;52.164;4.472;2023-05-07T03:08:32;30.50;;;30.48;;
66669;SDS011;53568;52.164;4.472;2023-05-07T03:10:58;30.50;;;30.41;;
66669;SDS011;53568;52.164;4.472;2023-05-07T03:13:23;30.17;;;30.16;;
66669;SDS011;53568;52.164;4.472;2023-05-07T03:15:49;28.86;;;28.86;;
66669;SDS011;53568;52.164;4.472;2023-05-07T03:18:14;29.35;;;29.33;;
66669;SDS011;53568;52.164;4.472;2023-05-07T03:20:40;28.64;;;28.63;;
66669;SDS011;53568;52.164;4.472;2023-05-07T03:23:05;29.24;;;29.24;;
66669;SDS011;53568;52.164;4.472;2023-05-07T03:25:31;28.19;;;28.17;;
66669;SDS011;53568;52.164;4.472;2023-05-07T03:27:57;27.17;;;27.15;;
66669;SDS011;53568;52.164;4.472;2023-05-07T03:30:23;27.58;;;27.57;;
66669;SDS011;53568;52.164;4.472;2023-05-07T03:32:48;27.51;;;27.38;;
66669;SDS011;53568;52.164;4.472;2023-05-07T03:35:14;27.27;;;27.27;;
66669;SDS011;53568;52.164;4.472;2023-05-07T03:37:40;27.31;;;27.28;;
66669;SDS011;53568;52.164;4.472;2023-05-07T03:40:06;27.80;;;27.80;;
66669;SDS011;53568;52.164;4.472;2023-05-07T03:42:32;26.64;;;26.64;;
66669;SDS011;53568;52.164;4.472;2023-05-07T03:44:58;26.37;;;26.34;;
66669;SDS011;53568;52.164;4.472;2023-05-07T03:47:24;26.11;;;26.11;;
66669;SDS011;53568;52.164;4.472;2023-05-07T03:49:49;25.59;;;25.58;;
66669;SDS011;53568;52.164;4.472;2023-05-07T03:52:15;25.69;;;25.69;;
66669;SDS011;53568;52.164;4.472;2023-05-07T03:54:41;25.70;;;25.70;;
66669;SDS011;53568;52.164;4.472;2023-05-07T03:57:06;25.74;;;25.74;;
66669;SDS011;53568;52.164;4.472;2023-05-07T03:59:32;25.94;;;25.94;;
66669;SDS011;53568;52.164;4.472;2023-05-07T04:01:58;24.58;;;24.58;;
66669;SDS011;53568;52.164;4.472;2023-05-07T04:04:23;24.92;;;24.92;;
66669;SDS011;53568;52.164;4.472;2023-05-07T04:06:49;24.50;;;24.50;;
66669;SDS011;53568;52.164;4.472;2023-05-07T04:09:14;24.48;;;24.48;;
66669;SDS011;53568;52.164;4.472;2023-05-07T04:11:40;24.66;;;24.66;;
66669;SDS011;53568;52.164;4.472;2023-05-07T04:14:05;24.25;;;24.25;;
66669;SDS011;53568;52.164;4.472;2023-05-07T04:16:31;24.13;;;24.13;;
66669;SDS011;53568;52.164;4.472;2023-05-07T04:18:57;23.87;;;23.87;;
66669;SDS011;53568;52.164;4.472;2023-05-07T04:21:22;24.59;;;24.59;;
66669;SDS011;53568;52.164;4.472;2023-05-07T04:23:48;24.51;;;24.51;;
66669;SDS011;53568;52.164;4.472;2023-05-07T04:26:15;24.62;;;24.62;;
66669;SDS011;53568;52.164;4.472;2023-05-07T04:28:41;24.73;;;24.73;;
66669;SDS011;53568;52.164;4.472;2023-05-07T04:31:07;24.20;;;24.20;;
66669;SDS011;53568;52.164;4.472;2023-05-07T04:33:33;25.05;;;25.05;;
66669;SDS011;53568;52.164;4.472;2023-05-07T04:36:02;24.49;;;24.49;;
66669;SDS011;53568;52.164;4.472;2023-05-07T04:38:29;24.69;;;24.69;;
66669;SDS011;53568;52.164;4.472;2023-05-07T04:40:56;24.30;;;24.30;;
66669;SDS011;53568;52.164;4.472;2023-05-07T04:43:23;23.94;;;23.94;;
66669;SDS011;53568;52.164;4.472;2023-05-07T04:45:50;23.83;;;23.83;;
66669;SDS011;53568;52.164;4.472;2023-05-07T04:48:16;23.51;;;23.51;;
66669;SDS011;53568;52.164;4.472;2023-05-07T04:50:44;23.48;;;23.48;;
66669;SDS011;53568;52.164;4.472;2023-05-07T04:53:12;22.83;;;22.83;;
66669;SDS011;53568;52.164;4.472;2023-05-07T04:55:37;22.05;;;22.05;;
66669;SDS011;53568;52.164;4.472;2023-05-07T04:58:03;22.34;;;22.34;;
66669;SDS011;53568;52.164;4.472;2023-05-07T05:00:30;21.99;;;21.99;;
66669;SDS011;53568;52.164;4.472;2023-05-07T05:02:55;22.49;;;22.49;;
66669;SDS011;53568;52.164;4.472;2023-05-07T05:05:21;22.04;;;22.04;;
66669;SDS011;53568;52.164;4.472;2023-05-07T05:07:46;22.12;;;22.12;;
66669;SDS011;53568;52.164;4.472;2023-05-07T05:10:12;21.79;;;21.79;;
66669;SDS011;53568;52.164;4.472;2023-05-07T05:12:38;21.23;;;21.23;;
66669;SDS011;53568;52.164;4.472;2023-05-07T05:15:04;21.44;;;21.44;;
66669;SDS011;53568;52.164;4.472;2023-05-07T05:17:30;20.87;;;20.87;;
66669;SDS011;53568;52.164;4.472;2023-05-07T05:19:56;20.39;;;20.39;;
66669;SDS011;53568;52.164;4.472;2023-05-07T05:22:21;20.73;;;20.73;;
66669;SDS011;53568;52.164;4.472;2023-05-07T05:24:47;20.57;;;20.57;;
66669;SDS011;53568;52.164;4.472;2023-05-07T05:27:12;20.45;;;20.45;;
66669;SDS011;53568;52.164;4.472;2023-05-07T05:29:38;20.08;;;20.08;;
66669;SDS011;53568;52.164;4.472;2023-05-07T05:32:03;20.37;;;20.37;;
66669;SDS011;53568;52.164;4.472;2023-05-07T05:34:29;19.97;;;19.97;;
66669;SDS011;53568;52.164;4.472;2023-05-07T05:36:55;20.07;;;20.07;;
66669;SDS011;53568;52.164;4.472;2023-05-07T05:39:20;20.65;;;20.65;;
66669;SDS011;53568;52.164;4.472;2023-05-07T05:41:48;20.23;;;20.23;;
66669;SDS011;53568;52.164;4.472;2023-05-07T05:44:13;20.65;;;20.65;;
66669;SDS011;53568;52.164;4.472;2023-05-07T05:46:39;20.25;;;20.25;;
66669;SDS011;53568;52.164;4.472;2023-05-07T05:49:05;20.55;;;20.55;;
66669;SDS011;53568;52.164;4.472;2023-05-07T05:51:30;19.73;;;19.73;;
66669;SDS011;53568;52.164;4.472;2023-05-07T05:53:56;20.57;;;20.57;;
66669;SDS011;53568;52.164;4.472;2023-05-07T05:56:21;20.68;;;20.68;;
66669;SDS011;53568;52.164;4.472;2023-05-07T05:58:47;20.80;;;20.80;;
66669;SDS011;53568;52.164;4.472;2023-05-07T06:01:13;21.06;;;21.06;;
66669;SDS011;53568;52.164;4.472;2023-05-07T06:03:38;21.28;;;21.28;;
66669;SDS011;53568;52.164;4.472;2023-05-07T06:06:04;21.06;;;21.06;;
66669;SDS011;53568;52.164;4.472;2023-05-07T06:08:29;20.49;;;20.49;;
66669;SDS011;53568;52.164;4.472;2023-05-07T06:10:55;20.90;;;20.90;;
66669;SDS011;53568;52.164;4.472;2023-05-07T06:13:21;20.57;;;20.57;;
66669;SDS011;53568;52.164;4.472;2023-05-07T06:15:48;21.66;;;21.66;;
66669;SDS011;53568;52.164;4.472;2023-05-07T06:18:14;21.62;;;21.62;;
66669;SDS011;53568;52.164;4.472;2023-05-07T06:20:39;22.04;;;22.04;;
66669;SDS011;53568;52.164;4.472;2023-05-07T06:23:05;22.24;;;22.24;;
66669;SDS011;53568;52.164;4.472;2023-05-07T06:25:30;22.70;;;22.70;;
66669;SDS011;53568;52.164;4.472;2023-05-07T06:27:56;22.82;;;22.82;;
66669;SDS011;53568;52.164;4.472;2023-05-07T06:30:21;23.22;;;23.22;;
66669;SDS011;53568;52.164;4.472;2023-05-07T06:32:47;23.46;;;23.46;;
66669;SDS011;53568;52.164;4.472;2023-05-07T06:35:12;24.19;;;24.19;;
66669;SDS011;53568;52.164;4.472;2023-05-07T06:37:38;24.82;;;24.82;;
66669;SDS011;53568;52.164;4.472;2023-05-07T06:40:07;25.67;;;25.67;;
66669;SDS011;53568;52.164;4.472;2023-05-07T06:42:33;25.16;;;25.16;;
66669;SDS011;53568;52.164;4.472;2023-05-07T06:45:00;25.91;;;25.87;;
66669;SDS011;53568;52.164;4.472;2023-05-07T06:47:26;25.27;;;25.27;;
66669;SDS011;53568;52.164;4.472;2023-05-07T06:49:51;25.56;;;25.56;;
66669;SDS011;53568;52.164;4.472;2023-05-07T06:52:17;25.77;;;25.77;;
66669;SDS011;53568;52.164;4.472;2023-05-07T06:54:42;26.12;;;26.12;;
66669;SDS011;53568;52.164;4.472;2023-05-07T06:57:08;25.38;;;25.38;;
66669;SDS011;53568;52.164;4.472;2023-05-07T06:59:33;25.29;;;25.29;;
66669;SDS011;53568;52.164;4.472;2023-05-07T07:01:59;26.35;;;26.35;;
66669;SDS011;53568;52.164;4.472;2023-05-07T07:04:25;26.58;;;26.58;;
66669;SDS011;53568;52.164;4.472;2023-05-07T07:06:54;26.69;;;26.69;;
66669;SDS011;53568;52.164;4.472;2023-05-07T07:09:19;26.79;;;26.79;;
66669;SDS011;53568;52.164;4.472;2023-05-07T07:11:45;27.04;;;27.04;;
66669;SDS011;53568;52.164;4.472;2023-05-07T07:14:10;27.47;;;27.47;;
66669;SDS011;53568;52.164;4.472;2023-05-07T07:16:36;26.84;;;26.84;;
66669;SDS011;53568;52.164;4.472;2023-05-07T07:19:01;27.31;;;27.31;;
66669;SDS011;53568;52.164;4.472;2023-05-07T07:21:27;26.94;;;26.94;;
66669;SDS011;53568;52.164;4.472;2023-05-07T07:23:52;26.51;;;26.51;;
66669;SDS011;53568;52.164;4.472;2023-05-07T07:26:18;26.22;;;26.22;;
66669;SDS011;53568;52.164;4.472;2023-05-07T07:28:44;25.45;;;25.45;;
66669;SDS011;53568;52.164;4.472;2023-05-07T07:31:10;24.30;;;24.30;;
66669;SDS011;53568;52.164;4.472;2023-05-07T07:33:36;25.01;;;25.00;;
66669;SDS011;53568;52.164;4.472;2023-05-07T07:36:02;26.35;;;26.35;;
66669;SDS011;53568;52.164;4.472;2023-05-07T07:38:27;25.61;;;25.61;;
66669;SDS011;53568;52.164;4.472;2023-05-07T07:40:53;25.30;;;25.30;;
66669;SDS011;53568;52.164;4.472;2023-05-07T07:43:18;24.53;;;24.53;;
66669;SDS011;53568;52.164;4.472;2023-05-07T07:45:44;23.27;;;23.27;;
66669;SDS011;53568;52.164;4.472;2023-05-07T07:48:11;23.58;;;23.58;;
66669;SDS011;53568;52.164;4.472;2023-05-07T07:50:36;23.61;;;23.61;;
66669;SDS011;53568;52.164;4.472;2023-05-07T07:53:02;24.15;;;24.15;;
66669;SDS011;53568;52.164;4.472;2023-05-07T07:55:28;23.23;;;23.23;;
66669;SDS011;53568;52.164;4.472;2023-05-07T07:57:53;22.10;;;22.10;;
66669;SDS011;53568;52.164;4.472;2023-05-07T08:00:19;21.95;;;21.95;;
66669;SDS011;53568;52.164;4.472;2023-05-07T08:02:45;22.92;;;22.92;;
66669;SDS011;53568;52.164;4.472;2023-05-07T08:05:10;20.97;;;20.97;;
66669;SDS011;53568;52.164;4.472;2023-05-07T08:07:36;22.13;;;22.13;;
66669;SDS011;53568;52.164;4.472;2023-05-07T08:10:01;20.36;;;20.36;;
66669;SDS011;53568;52.164;4.472;2023-05-07T08:12:27;19.36;;;19.36;;
66669;SDS011;53568;52.164;4.472;2023-05-07T08:14:53;17.65;;;17.65;;
66669;SDS011;53568;52.164;4.472;2023-05-07T08:17:18;16.56;;;16.56;;
66669;SDS011;53568;52.164;4.472;2023-05-07T08:23:06;15.65;;;15.65;;
66669;SDS011;53568;52.164;4.472;2023-05-07T08:25:33;16.26;;;16.26;;
66669;SDS011;53568;52.164;4.472;2023-05-07T08:27:59;17.04;;;17.04;;
66669;SDS011;53568;52.164;4.472;2023-05-07T08:30:25;15.87;;;15.87;;
66669;SDS011;53568;52.164;4.472;2023-05-07T08:32:50;16.60;;;16.60;;
66669;SDS011;53568;52.164;4.472;2023-05-07T08:35:16;15.88;;;15.88;;
66669;SDS011;53568;52.164;4.472;2023-05-07T08:37:41;15.66;;;15.66;;
66669;SDS011;53568;52.164;4.472;2023-05-07T08:40:07;15.69;;;15.69;;
66669;SDS011;53568;52.164;4.472;2023-05-07T08:42:35;16.90;;;16.90;;
66669;SDS011;53568;52.164;4.472;2023-05-07T08:45:02;15.28;;;15.28;;
66669;SDS011;53568;52.164;4.472;2023-05-07T08:47:34;14.43;;;14.43;;
66669;SDS011;53568;52.164;4.472;2023-05-07T08:50:07;11.88;;;11.88;;
66669;SDS011;53568;52.164;4.472;2023-05-07T08:52:33;12.50;;;12.50;;
66669;SDS011;53568;52.164;4.472;2023-05-07T08:54:59;14.63;;;14.63;;
66669;SDS011;53568;52.164;4.472;2023-05-07T08:57:26;13.10;;;13.10;;
66669;SDS011;53568;52.164;4.472;2023-05-07T08:59:51;11.89;;;11.89;;
66669;SDS011;53568;52.164;4.472;2023-05-07T09:02:17;10.82;;;10.82;;
66669;SDS011;53568;52.164;4.472;2023-05-07T09:04:43;9.41;;;9.41;;
66669;SDS011;53568;52.164;4.472;2023-05-07T09:07:08;8.95;;;8.95;;
66669;SDS011;53568;52.164;4.472;2023-05-07T09:09:34;8.27;;;8.27;;
66669;SDS011;53568;52.164;4.472;2023-05-07T09:12:00;8.31;;;8.31;;
66669;SDS011;53568;52.164;4.472;2023-05-07T09:14:25;8.70;;;8.70;;
66669;SDS011;53568;52.164;4.472;2023-05-07T09:16:54;9.60;;;9.60;;
66669;SDS011;53568;52.164;4.472;2023-05-07T09:19:23;9.98;;;9.98;;
66669;SDS011;53568;52.164;4.472;2023-05-07T09:21:49;9.42;;;9.42;;
66669;SDS011;53568;52.164;4.472;2023-05-07T09:24:15;8.99;;;8.99;;
66669;SDS011;53568;52.164;4.472;2023-05-07T09:26:41;9.29;;;9.29;;
66669;SDS011;53568;52.164;4.472;2023-05-07T09:29:10;9.19;;;9.19;;
66669;SDS011;53568;52.164;4.472;2023-05-07T09:31:38;9.22;;;9.22;;
66669;SDS011;53568;52.164;4.472;2023-05-07T09:34:04;10.51;;;10.51;;
66669;SDS011;53568;52.164;4.472;2023-05-07T09:36:31;11.67;;;11.67;;
66669;SDS011;53568;52.164;4.472;2023-05-07T09:38:59;12.62;;;12.62;;
66669;SDS011;53568;52.164;4.472;2023-05-07T09:41:24;13.13;;;13.13;;
66669;SDS011;53568;52.164;4.472;2023-05-07T09:43:54;13.52;;;13.52;;
66669;SDS011;53568;52.164;4.472;2023-05-07T09:46:23;12.12;;;12.12;;
66669;SDS011;53568;52.164;4.472;2023-05-07T09:48:56;11.32;;;11.32;;
66669;SDS011;53568;52.164;4.472;2023-05-07T09:53:50;10.29;;;10.29;;
66669;SDS011;53568;52.164;4.472;2023-05-07T09:56:17;9.98;;;9.98;;
66669;SDS011;53568;52.164;4.472;2023-05-07T09:58:45;10.09;;;10.09;;
66669;SDS011;53568;52.164;4.472;2023-05-07T10:01:12;9.42;;;9.42;;
66669;SDS011;53568;52.164;4.472;2023-05-07T10:03:41;9.75;;;9.75;;
66669;SDS011;53568;52.164;4.472;2023-05-07T10:06:09;9.12;;;9.12;;
66669;SDS011;53568;52.164;4.472;2023-05-07T10:08:36;9.27;;;9.27;;
66669;SDS011;53568;52.164;4.472;2023-05-07T10:11:05;10.52;;;10.52;;
66669;SDS011;53568;52.164;4.472;2023-05-07T10:13:32;10.83;;;10.83;;
66669;SDS011;53568;52.164;4.472;2023-05-07T10:16:01;12.40;;;12.40;;
66669;SDS011;53568;52.164;4.472;2023-05-07T10:18:30;12.22;;;12.22;;
66669;SDS011;53568;52.164;4.472;2023-05-07T10:21:06;11.96;;;11.96;;
66669;SDS011;53568;52.164;4.472;2023-05-07T10:23:49;11.39;;;11.39;;
66669;SDS011;53568;52.164;4.472;2023-05-07T10:26:20;12.77;;;12.77;;
66669;SDS011;53568;52.164;4.472;2023-05-07T10:28:49;12.15;;;12.15;;
66669;SDS011;53568;52.164;4.472;2023-05-07T10:33:58;12.88;;;12.88;;
66669;SDS011;53568;52.164;4.472;2023-05-07T10:36:32;12.16;;;12.16;;
66669;SDS011;53568;52.164;4.472;2023-05-07T10:38:59;12.76;;;12.76;;
66669;SDS011;53568;52.164;4.472;2023-05-07T10:41:25;12.17;;;12.17;;
66669;SDS011;53568;52.164;4.472;2023-05-07T10:43:51;11.44;;;11.44;;
66669;SDS011;53568;52.164;4.472;2023-05-07T10:46:17;11.63;;;11.63;;
66669;SDS011;53568;52.164;4.472;2023-05-07T10:51:29;13.04;;;13.04;;
66669;SDS011;53568;52.164;4.472;2023-05-07T10:56:37;12.85;;;12.85;;
66669;SDS011;53568;52.164;4.472;2023-05-07T11:01:59;11.25;;;11.25;;
66669;SDS011;53568;52.164;4.472;2023-05-07T11:04:31;11.28;;;11.28;;
66669;SDS011;53568;52.164;4.472;2023-05-07T11:15:06;10.92;;;10.92;;
66669;SDS011;53568;52.164;4.472;2023-05-07T11:17:33;10.81;;;10.81;;
66669;SDS011;53568;52.164;4.472;2023-05-07T11:20:01;10.20;;;10.20;;
66669;SDS011;53568;52.164;4.472;2023-05-07T11:24:59;9.48;;;9.48;;
66669;SDS011;53568;52.164;4.472;2023-05-07T11:27:25;11.50;;;11.50;;
66669;SDS011;53568;52.164;4.472;2023-05-07T11:29:52;11.20;;;11.20;;
66669;SDS011;53568;52.164;4.472;2023-05-07T11:34:53;12.40;;;12.40;;
66669;SDS011;53568;52.164;4.472;2023-05-07T11:37:20;13.19;;;13.19;;
66669;SDS011;53568;52.164;4.472;2023-05-07T11:39:47;12.14;;;12.14;;
66669;SDS011;53568;52.164;4.472;2023-05-07T11:42:28;11.25;;;11.25;;
66669;SDS011;53568;52.164;4.472;2023-05-07T11:44:54;11.23;;;11.23;;
66669;SDS011;53568;52.164;4.472;2023-05-07T11:47:20;10.23;;;10.23;;
66669;SDS011;53568;52.164;4.472;2023-05-07T11:49:47;10.23;;;10.23;;
66669;SDS011;53568;52.164;4.472;2023-05-07T11:52:14;9.46;;;9.46;;
66669;SDS011;53568;52.164;4.472;2023-05-07T11:54:40;12.54;;;12.54;;
66669;SDS011;53568;52.164;4.472;2023-05-07T11:57:06;16.38;;;16.38;;
66669;SDS011;53568;52.164;4.472;2023-05-07T11:59:41;16.95;;;16.95;;
66669;SDS011;53568;52.164;4.472;2023-05-07T12:02:15;17.28;;;17.28;;
66669;SDS011;53568;52.164;4.472;2023-05-07T12:04:42;16.41;;;16.41;;
66669;SDS011;53568;52.164;4.472;2023-05-07T12:07:14;15.29;;;15.29;;
66669;SDS011;53568;52.164;4.472;2023-05-07T12:09:41;14.73;;;14.73;;
66669;SDS011;53568;52.164;4.472;2023-05-07T12:12:07;13.63;;;13.63;;
66669;SDS011;53568;52.164;4.472;2023-05-07T12:14:33;14.15;;;14.15;;
66669;SDS011;53568;52.164;4.472;2023-05-07T12:17:04;14.32;;;14.32;;
66669;SDS011;53568;52.164;4.472;2023-05-07T12:19:30;15.26;;;15.26;;
66669;SDS011;53568;52.164;4.472;2023-05-07T12:21:58;16.63;;;16.63;;
66669;SDS011;53568;52.164;4.472;2023-05-07T12:24:24;17.27;;;17.26;;
66669;SDS011;53568;52.164;4.472;2023-05-07T12:26:50;17.28;;;17.28;;
66669;SDS011;53568;52.164;4.472;2023-05-07T12:29:16;17.93;;;17.93;;
66669;SDS011;53568;52.164;4.472;2023-05-07T12:31:41;19.17;;;19.17;;
66669;SDS011;53568;52.164;4.472;2023-05-07T12:34:08;19.29;;;19.29;;
66669;SDS011;53568;52.164;4.472;2023-05-07T12:36:37;19.06;;;19.06;;
66669;SDS011;53568;52.164;4.472;2023-05-07T12:39:04;19.50;;;19.50;;
66669;SDS011;53568;52.164;4.472;2023-05-07T12:41:31;20.42;;;20.42;;
66669;SDS011;53568;52.164;4.472;2023-05-07T12:44:03;20.63;;;20.63;;
66669;SDS011;53568;52.164;4.472;2023-05-07T12:46:30;21.19;;;21.19;;
66669;SDS011;53568;52.164;4.472;2023-05-07T12:48:56;21.09;;;21.09;;
66669;SDS011;53568;52.164;4.472;2023-05-07T12:51:21;21.05;;;21.05;;
66669;SDS011;53568;52.164;4.472;2023-05-07T12:53:47;21.75;;;21.75;;
66669;SDS011;53568;52.164;4.472;2023-05-07T12:56:12;21.83;;;21.83;;
66669;SDS011;53568;52.164;4.472;2023-05-07T12:58:40;22.80;;;22.80;;
66669;SDS011;53568;52.164;4.472;2023-05-07T13:01:07;23.42;;;23.42;;
66669;SDS011;53568;52.164;4.472;2023-05-07T13:03:35;23.18;;;23.18;;
66669;SDS011;53568;52.164;4.472;2023-05-07T13:06:21;22.69;;;22.69;;
66669;SDS011;53568;52.164;4.472;2023-05-07T13:12:18;23.44;;;23.44;;
66669;SDS011;53568;52.164;4.472;2023-05-07T13:21:56;22.48;;;22.48;;
66669;SDS011;53568;52.164;4.472;2023-05-07T13:24:21;22.12;;;22.12;;
66669;SDS011;53568;52.164;4.472;2023-05-07T13:26:46;22.29;;;22.29;;
66669;SDS011;53568;52.164;4.472;2023-05-07T13:32:34;20.64;;;20.64;;
66669;SDS011;53568;52.164;4.472;2023-05-07T13:35:00;21.01;;;21.01;;
66669;SDS011;53568;52.164;4.472;2023-05-07T13:37:26;20.47;;;20.47;;
66669;SDS011;53568;52.164;4.472;2023-05-07T13:39:52;20.67;;;20.67;;
66669;SDS011;53568;52.164;4.472;2023-05-07T13:42:17;20.95;;;20.95;;
66669;SDS011;53568;52.164;4.472;2023-05-07T13:44:43;21.04;;;21.04;;
66669;SDS011;53568;52.164;4.472;2023-05-07T13:47:10;21.33;;;21.33;;
66669;SDS011;53568;52.164;4.472;2023-05-07T13:49:36;21.36;;;21.36;;
66669;SDS011;53568;52.164;4.472;2023-05-07T13:52:01;20.87;;;20.87;;
66669;SDS011;53568;52.164;4.472;2023-05-07T13:54:47;21.21;;;21.21;;
66669;SDS011;53568;52.164;4.472;2023-05-07T14:00:41;20.41;;;20.41;;
66669;SDS011;53568;52.164;4.472;2023-05-07T14:03:07;22.39;;;22.39;;
66669;SDS011;53568;52.164;4.472;2023-05-07T14:05:32;22.68;;;22.68;;
66669;SDS011;53568;52.164;4.472;2023-05-07T14:07:58;24.68;;;24.68;;
66669;SDS011;53568;52.164;4.472;2023-05-07T14:10:23;26.20;;;26.20;;
66669;SDS011;53568;52.164;4.472;2023-05-07T14:12:50;27.87;;;27.87;;
66669;SDS011;53568;52.164;4.472;2023-05-07T14:15:15;29.19;;;29.07;;
66669;SDS011;53568;52.164;4.472;2023-05-07T14:17:41;29.76;;;29.73;;
66669;SDS011;53568;52.164;4.472;2023-05-07T14:20:18;29.29;;;29.29;;
66669;SDS011;53568;52.164;4.472;2023-05-07T14:22:44;29.89;;;29.87;;
66669;SDS011;53568;52.164;4.472;2023-05-07T14:25:10;31.21;;;31.21;;
66669;SDS011;53568;52.164;4.472;2023-05-07T14:27:35;29.18;;;29.18;;
66669;SDS011;53568;52.164;4.472;2023-05-07T14:30:01;29.31;;;29.31;;
66669;SDS011;53568;52.164;4.472;2023-05-07T14:32:26;29.38;;;29.37;;
66669;SDS011;53568;52.164;4.472;2023-05-07T14:34:52;31.15;;;31.13;;
66669;SDS011;53568;52.164;4.472;2023-05-07T14:37:17;33.32;;;33.27;;
66669;SDS011;53568;52.164;4.472;2023-05-07T14:39:44;31.54;;;31.54;;
66669;SDS011;53568;52.164;4.472;2023-05-07T14:42:10;31.47;;;31.47;;
66669;SDS011;53568;52.164;4.472;2023-05-07T14:44:36;33.55;;;33.43;;
66669;SDS011;53568;52.164;4.472;2023-05-07T14:47:02;33.72;;;33.67;;
66669;SDS011;53568;52.164;4.472;2023-05-07T14:49:27;33.79;;;33.79;;
66669;SDS011;53568;52.164;4.472;2023-05-07T14:51:56;33.85;;;33.78;;
66669;SDS011;53568;52.164;4.472;2023-05-07T14:54:23;33.43;;;33.39;;
66669;SDS011;53568;52.164;4.472;2023-05-07T14:56:48;33.25;;;33.25;;
66669;SDS011;53568;52.164;4.472;2023-05-07T14:59:14;32.84;;;32.84;;
66669;SDS011;53568;52.164;4.472;2023-05-07T15:01:42;34.09;;;34.08;;
66669;SDS011;53568;52.164;4.472;2023-05-07T15:04:10;32.68;;;32.64;;
66669;SDS011;53568;52.164;4.472;2023-05-07T15:06:36;32.24;;;32.24;;